Time;durP1;ratioP1;P1;durP2;ratioP2;P2;SDS_P1;SDS_P2;PMS_P1;PMS_P2;Temp;Humidity;BMP_temperature;BMP_pressure;BME280_temperature;BME280_humidity;BME280_pressure;Samples;Min_cycle;Max_cycle;Signal;HPM_P1;HPM_P2
2021/04/17 00:02:10;;;;;;;10.47;9.47;;;5.80;99.90;;;;;;5039738;28;20861;-56
2021/04/17 00:04:39;;;;;;;10.40;9.30;;;5.70;99.90;;;;;;5054621;28;20941;-54
2021/04/17 00:07:09;;;;;;;11.00;9.90;;;5.80;99.90;;;;;;5055181;28;20405;-57
2021/04/17 00:09:36;;;;;;;11.73;10.70;;;5.80;99.90;;;;;;5045144;28;20438;-57
2021/04/17 00:12:05;;;;;;;12.07;10.83;;;5.70;99.90;;;;;;5034728;28;20437;-57
2021/04/17 00:14:35;;;;;;;11.20;10.10;;;5.60;99.90;;;;;;5034523;28;20456;-55
2021/04/17 00:17:01;;;;;;;12.27;10.80;;;5.50;99.90;;;;;;5034336;28;20497;-57
2021/04/17 00:19:27;;;;;;;10.63;9.53;;;5.60;99.90;;;;;;5034768;28;20414;-53
2021/04/17 00:21:52;;;;;;;11.17;10.03;;;5.60;99.90;;;;;;5034388;28;20413;-57
2021/04/17 00:24:18;;;;;;;12.03;10.97;;;5.60;99.90;;;;;;5033975;28;20670;-53
2021/04/17 00:26:44;;;;;;;10.73;9.57;;;5.60;99.90;;;;;;5034698;28;20225;-57
2021/04/17 00:29:09;;;;;;;11.83;10.63;;;5.60;99.90;;;;;;5034853;28;20167;-55
2021/04/17 00:31:37;;;;;;;12.00;10.80;;;5.60;99.90;;;;;;5034141;28;20251;-54
2021/04/17 00:34:03;;;;;;;10.37;9.37;;;5.60;99.90;;;;;;5034091;28;20430;-55
2021/04/17 00:36:28;;;;;;;11.10;10.00;;;5.60;99.90;;;;;;5034371;28;20414;-53
2021/04/17 00:38:55;;;;;;;13.27;11.10;;;5.60;99.90;;;;;;5033782;28;20424;-56
2021/04/17 00:41:21;;;;;;;12.87;10.50;;;5.50;99.90;;;;;;5034156;28;20175;-56
2021/04/17 00:43:47;;;;;;;11.17;10.07;;;5.50;99.90;;;;;;5034301;28;20826;-56
2021/04/17 00:46:13;;;;;;;12.37;11.17;;;5.50;99.90;;;;;;5034331;28;20418;-54
2021/04/17 00:48:40;;;;;;;12.90;11.60;;;5.50;99.90;;;;;;5033897;28;20250;-55
2021/04/17 00:51:06;;;;;;;11.57;10.47;;;5.50;99.90;;;;;;5034002;28;20577;-57
2021/04/17 00:53:32;;;;;;;11.00;9.93;;;5.50;99.90;;;;;;5033528;28;20438;-55
2021/04/17 00:55:58;;;;;;;10.83;9.90;;;5.50;99.90;;;;;;5033818;28;20762;-56
2021/04/17 00:58:24;;;;;;;12.13;11.00;;;5.40;99.90;;;;;;5034230;28;20217;-55
2021/04/17 01:00:49;;;;;;;13.27;11.97;;;5.40;99.90;;;;;;5033915;28;20410;-54
2021/04/17 01:03:21;;;;;;;11.40;10.23;;;5.50;99.90;;;;;;5032431;28;20221;-54
2021/04/17 01:05:49;;;;;;;11.97;10.83;;;5.50;99.90;;;;;;5033807;28;20167;-57
2021/04/17 01:08:41;;;;;;;12.17;11.00;;;5.60;99.90;;;;;;5033795;28;20836;-57
2021/04/17 01:11:11;;;;;;;12.63;11.43;;;5.40;99.90;;;;;;5033922;28;20379;-57
2021/04/17 01:13:37;;;;;;;13.97;12.47;;;5.30;99.90;;;;;;5034085;28;20406;-53
2021/04/17 01:16:04;;;;;;;11.97;10.73;;;5.30;99.90;;;;;;5033573;28;20402;-53
2021/04/17 01:18:31;;;;;;;13.17;11.87;;;5.40;99.90;;;;;;5033527;28;20467;-53
2021/04/17 01:20:58;;;;;;;13.27;11.97;;;5.40;99.90;;;;;;5033966;28;20406;-53
2021/04/17 01:23:32;;;;;;;12.77;11.40;;;5.50;99.90;;;;;;5033383;28;20515;-54
2021/04/17 01:26:00;;;;;;;12.40;11.20;;;5.60;99.90;;;;;;5033606;28;20409;-53
2021/04/17 01:28:28;;;;;;;10.70;9.70;;;5.50;99.90;;;;;;5033722;28;20449;-56
2021/04/17 01:30:55;;;;;;;14.43;13.10;;;5.50;99.90;;;;;;5033447;28;20402;-57
2021/04/17 01:33:25;;;;;;;13.13;11.57;;;5.60;99.90;;;;;;5033594;28;20445;-56
2021/04/17 01:35:52;;;;;;;11.80;10.70;;;5.60;99.90;;;;;;5033694;28;20783;-55
2021/04/17 01:38:26;;;;;;;13.87;12.50;;;5.60;99.90;;;;;;5033286;28;20787;-56
2021/04/17 01:40:57;;;;;;;12.47;11.37;;;5.70;99.90;;;;;;5033712;28;20390;-56
2021/04/17 01:43:27;;;;;;;13.20;11.90;;;5.80;99.90;;;;;;5033497;28;20449;-56
2021/04/17 01:45:57;;;;;;;12.23;10.93;;;5.80;99.90;;;;;;5033382;28;20418;-57
2021/04/17 01:48:27;;;;;;;12.40;10.97;;;5.80;99.90;;;;;;5033045;28;20828;-56
2021/04/17 01:50:53;;;;;;;12.77;11.47;;;5.80;99.90;;;;;;5033461;28;20417;-56
2021/04/17 01:53:23;;;;;;;12.77;11.57;;;5.80;99.90;;;;;;5035342;28;20449;-57
2021/04/17 01:55:50;;;;;;;11.90;10.70;;;5.80;99.90;;;;;;5033123;28;20411;-56
2021/04/17 01:58:29;;;;;;;12.27;11.03;;;5.80;99.90;;;;;;5033166;28;20418;-56
2021/04/17 02:00:56;;;;;;;12.90;11.60;;;5.90;99.90;;;;;;5033839;28;20409;-56
2021/04/17 02:03:22;;;;;;;12.13;10.83;;;5.90;99.90;;;;;;5032868;28;20470;-54
2021/04/17 02:05:50;;;;;;;13.40;12.10;;;5.80;99.90;;;;;;5033294;28;20414;-56
2021/04/17 02:08:17;;;;;;;13.40;12.00;;;5.70;99.90;;;;;;5031861;28;20479;-57
2021/04/17 02:10:44;;;;;;;12.93;11.80;;;5.70;99.90;;;;;;5033412;28;20410;-56
2021/04/17 02:13:10;;;;;;;13.10;11.70;;;5.70;99.90;;;;;;5033526;28;20432;-53
2021/04/17 02:15:37;;;;;;;13.07;11.77;;;5.70;99.90;;;;;;5036075;28;20409;-56
2021/04/17 02:18:28;;;;;;;14.07;12.10;;;5.70;99.90;;;;;;5037369;28;20883;-53
2021/04/17 02:21:07;;;;;;;12.77;11.47;;;5.60;99.90;;;;;;5029346;28;20496;-56
2021/04/17 02:23:34;;;;;;;14.00;12.67;;;5.50;99.90;;;;;;5037319;28;20457;-56
2021/04/17 02:26:03;;;;;;;14.50;13.10;;;5.50;99.90;;;;;;5037482;28;20814;-56
2021/04/17 02:28:30;;;;;;;13.43;12.03;;;5.50;99.90;;;;;;5037152;28;20452;-56
2021/04/17 02:30:56;;;;;;;13.50;12.10;;;5.50;99.90;;;;;;5037829;28;20528;-55
2021/04/17 02:33:23;;;;;;;15.23;13.63;;;5.50;99.90;;;;;;5036628;28;20445;-56
2021/04/17 02:35:49;;;;;;;16.30;14.30;;;5.50;99.90;;;;;;5036458;28;20405;-54
2021/04/17 02:38:15;;;;;;;14.90;13.10;;;5.50;99.90;;;;;;5036216;28;20421;-55
2021/04/17 02:40:41;;;;;;;14.67;13.17;;;5.60;99.90;;;;;;5036531;28;20826;-56
2021/04/17 02:43:06;;;;;;;14.73;13.17;;;5.50;99.90;;;;;;5036457;28;20464;-56
2021/04/17 02:45:33;;;;;;;14.70;12.67;;;5.50;99.90;;;;;;5036221;28;20199;-57
2021/04/17 02:47:59;;;;;;;14.87;13.37;;;5.50;99.90;;;;;;5032856;28;20218;-56
2021/04/17 02:50:25;;;;;;;17.50;14.00;;;5.50;99.90;;;;;;5034422;28;20418;-57
2021/04/17 02:52:51;;;;;;;15.30;13.80;;;5.40;99.90;;;;;;5036183;28;20609;-56
2021/04/17 02:55:18;;;;;;;14.30;12.80;;;5.50;99.90;;;;;;5035955;28;20740;-57
2021/04/17 02:57:44;;;;;;;14.77;13.37;;;5.50;99.90;;;;;;5036374;28;20402;-56
2021/04/17 03:00:14;;;;;;;15.17;13.60;;;5.50;99.90;;;;;;5035950;28;20914;-55
2021/04/17 03:02:39;;;;;;;13.30;12.00;;;5.40;99.90;;;;;;5035365;28;20494;-57
2021/04/17 03:05:07;;;;;;;12.70;11.40;;;5.50;99.90;;;;;;5035926;28;20445;-56
2021/04/17 03:07:33;;;;;;;13.10;11.70;;;5.40;99.90;;;;;;5035978;28;20633;-56
2021/04/17 03:09:58;;;;;;;13.00;11.70;;;5.30;99.90;;;;;;5035601;28;20401;-57
2021/04/17 03:12:24;;;;;;;14.77;13.23;;;5.40;99.90;;;;;;5035777;28;20699;-56
2021/04/17 03:14:50;;;;;;;16.57;14.80;;;5.30;99.90;;;;;;5035832;28;20171;-56
2021/04/17 03:17:15;;;;;;;15.57;13.90;;;5.30;99.90;;;;;;5035639;28;20168;-53
2021/04/17 03:19:42;;;;;;;16.37;13.87;;;5.40;99.90;;;;;;5035721;28;20171;-57
2021/04/17 03:22:07;;;;;;;15.43;13.83;;;5.40;99.90;;;;;;5035692;28;20162;-55
2021/04/17 03:24:34;;;;;;;16.07;14.37;;;5.30;99.90;;;;;;5035230;28;20536;-54
2021/04/17 03:27:00;;;;;;;14.77;12.80;;;5.30;99.90;;;;;;5034659;28;20163;-57
2021/04/17 03:29:26;;;;;;;14.00;12.17;;;5.30;99.90;;;;;;5035477;28;20406;-56
2021/04/17 03:31:51;;;;;;;14.70;13.13;;;5.10;99.90;;;;;;5035548;28;20452;-57
2021/04/17 03:34:17;;;;;;;15.53;14.03;;;5.10;99.90;;;;;;5035156;28;20191;-57
2021/04/17 03:36:43;;;;;;;14.47;12.97;;;5.10;99.90;;;;;;5035440;28;20281;-57
2021/04/17 03:39:08;;;;;;;14.00;12.63;;;5.00;99.90;;;;;;5035172;28;20170;-54
2021/04/17 03:41:34;;;;;;;15.87;14.20;;;5.00;99.90;;;;;;5035343;28;20186;-57
2021/04/17 03:44:00;;;;;;;15.27;13.63;;;5.10;99.90;;;;;;5035216;28;20195;-56
2021/04/17 03:46:25;;;;;;;14.30;13.00;;;5.20;99.90;;;;;;5035769;28;20158;-56
2021/04/17 03:48:51;;;;;;;15.40;13.60;;;5.10;99.90;;;;;;5035166;28;20544;-54
2021/04/17 03:51:16;;;;;;;14.70;12.37;;;4.90;99.90;;;;;;5035149;28;20533;-55
2021/04/17 03:53:42;;;;;;;15.07;13.67;;;5.00;99.90;;;;;;5034721;28;20184;-57
2021/04/17 03:56:08;;;;;;;13.97;12.57;;;5.10;99.90;;;;;;5034994;28;20163;-54
2021/04/17 03:58:33;;;;;;;15.87;14.27;;;5.10;99.90;;;;;;5035342;28;20221;-56
2021/04/17 04:00:59;;;;;;;14.70;13.30;;;5.10;99.90;;;;;;5037365;28;20174;-57
2021/04/17 04:03:25;;;;;;;13.57;12.27;;;5.20;99.90;;;;;;5034433;28;20214;-57
2021/04/17 04:05:51;;;;;;;15.93;13.10;;;5.20;99.90;;;;;;5035007;28;20179;-57
2021/04/17 04:08:16;;;;;;;15.93;14.17;;;5.10;99.90;;;;;;5034999;28;20191;-56
2021/04/17 04:10:42;;;;;;;15.80;14.20;;;5.10;99.90;;;;;;5034376;28;20448;-56
2021/04/17 04:13:07;;;;;;;15.63;14.03;;;5.00;99.90;;;;;;5034774;28;20186;-56
2021/04/17 04:15:33;;;;;;;14.90;13.40;;;5.00;99.90;;;;;;5034579;28;20301;-54
2021/04/17 04:17:59;;;;;;;15.47;14.07;;;5.00;99.90;;;;;;5034224;28;20177;-57
2021/04/17 04:20:24;;;;;;;16.97;13.83;;;5.00;99.90;;;;;;5034510;28;20180;-57
2021/04/17 04:22:50;;;;;;;18.10;14.77;;;4.90;99.90;;;;;;5034276;28;20265;-54
2021/04/17 04:25:16;;;;;;;17.47;15.57;;;4.70;99.90;;;;;;5034122;28;20170;-57
2021/04/17 04:27:41;;;;;;;18.33;15.30;;;4.60;99.90;;;;;;5034504;28;20209;-56
2021/04/17 04:30:10;;;;;;;16.00;14.50;;;4.70;99.90;;;;;;5034456;28;20604;-56
2021/04/17 04:32:36;;;;;;;18.53;16.13;;;4.60;99.90;;;;;;5016018;28;20194;-50
2021/04/17 04:35:03;;;;;;;19.50;17.60;;;4.60;99.90;;;;;;5034002;28;20408;-54
2021/04/17 04:37:29;;;;;;;17.33;15.53;;;4.60;99.90;;;;;;5033817;28;20417;-57
2021/04/17 04:39:54;;;;;;;18.03;16.30;;;4.70;99.90;;;;;;5034241;28;20426;-54
2021/04/17 04:42:20;;;;;;;20.30;18.13;;;4.70;99.90;;;;;;5034556;28;20201;-54
2021/04/17 04:44:45;;;;;;;19.87;17.50;;;4.70;99.90;;;;;;5034449;28;20217;-56
2021/04/17 04:47:11;;;;;;;19.97;17.97;;;4.70;99.90;;;;;;5034702;28;20178;-56
2021/04/17 04:49:37;;;;;;;19.43;17.33;;;4.80;99.90;;;;;;5035320;28;20175;-53
2021/04/17 04:52:03;;;;;;;22.13;17.70;;;4.80;99.90;;;;;;5016489;28;20253;-55
2021/04/17 04:54:28;;;;;;;18.63;16.90;;;4.80;99.90;;;;;;5033792;28;20186;-54
2021/04/17 04:56:54;;;;;;;19.30;17.40;;;4.80;99.90;;;;;;5033984;28;20203;-55
2021/04/17 04:59:19;;;;;;;20.00;17.87;;;4.80;99.90;;;;;;5033764;28;20171;-56
2021/04/17 05:01:45;;;;;;;20.23;18.33;;;4.90;99.90;;;;;;5033820;28;20211;-54
2021/04/17 05:04:11;;;;;;;18.60;16.77;;;5.00;99.90;;;;;;5034025;28;20281;-56
2021/04/17 05:06:37;;;;;;;18.17;16.27;;;5.00;99.90;;;;;;5033824;28;20198;-53
2021/04/17 05:09:05;;;;;;;19.10;17.23;;;5.10;99.90;;;;;;5033575;28;20174;-57
2021/04/17 05:11:32;;;;;;;18.30;16.50;;;5.20;99.90;;;;;;5033655;28;20403;-57
2021/04/17 05:13:58;;;;;;;17.80;16.07;;;5.30;99.90;;;;;;5033607;28;20460;-54
2021/04/17 05:16:24;;;;;;;19.33;17.33;;;5.30;99.90;;;;;;5033635;28;20430;-56
2021/04/17 05:18:49;;;;;;;17.53;15.70;;;5.40;99.90;;;;;;5033404;28;20541;-57
2021/04/17 05:21:15;;;;;;;22.83;19.37;;;5.50;99.90;;;;;;5033533;28;20417;-57
2021/04/17 05:23:40;;;;;;;19.70;17.73;;;5.60;99.90;;;;;;5033378;28;20199;-57
2021/04/17 05:26:06;;;;;;;19.07;17.27;;;5.70;99.90;;;;;;5033806;28;20453;-53
2021/04/17 05:28:32;;;;;;;19.40;17.60;;;5.80;99.90;;;;;;5034396;28;20175;-57
2021/04/17 05:30:57;;;;;;;17.67;15.97;;;5.90;99.90;;;;;;5033442;28;20181;-56
2021/04/17 05:33:23;;;;;;;18.33;16.50;;;6.00;99.90;;;;;;5033181;28;20274;-57
2021/04/17 05:35:49;;;;;;;18.33;16.53;;;6.00;99.90;;;;;;5033698;28;20167;-54
2021/04/17 05:38:14;;;;;;;18.30;16.53;;;6.00;99.90;;;;;;5033819;28;20770;-54
2021/04/17 05:40:40;;;;;;;17.33;15.73;;;6.00;99.90;;;;;;5029567;28;20168;-55
2021/04/17 05:43:06;;;;;;;18.60;16.80;;;6.10;99.90;;;;;;5024867;28;20338;-55
2021/04/17 05:45:31;;;;;;;18.43;16.63;;;6.10;99.90;;;;;;5033503;28;20195;-56
2021/04/17 05:47:57;;;;;;;19.57;17.63;;;6.20;99.90;;;;;;5033224;28;20191;-57
2021/04/17 05:50:22;;;;;;;20.63;18.50;;;6.20;99.90;;;;;;5035860;28;20593;-56
2021/04/17 05:52:48;;;;;;;17.90;16.20;;;6.20;99.90;;;;;;5037229;28;20185;-56
2021/04/17 05:55:14;;;;;;;18.10;16.00;;;6.30;99.90;;;;;;5036873;28;20163;-56
2021/04/17 05:57:40;;;;;;;16.60;15.00;;;6.40;99.90;;;;;;5039793;28;20221;-57
2021/04/17 06:00:07;;;;;;;18.03;16.30;;;6.50;99.90;;;;;;5037305;28;20408;-57
2021/04/17 06:02:32;;;;;;;19.60;17.60;;;6.70;99.90;;;;;;5036962;28;20256;-57
2021/04/17 06:04:58;;;;;;;18.30;16.57;;;6.90;99.90;;;;;;5037007;28;20453;-55
2021/04/17 06:07:23;;;;;;;18.10;16.20;;;7.10;99.90;;;;;;5037089;28;20533;-55
2021/04/17 06:09:49;;;;;;;15.83;14.17;;;7.20;99.90;;;;;;5036665;28;20297;-54
2021/04/17 06:12:15;;;;;;;17.70;16.00;;;7.30;99.90;;;;;;5036856;28;20168;-57
2021/04/17 06:14:40;;;;;;;18.37;16.47;;;7.50;99.90;;;;;;5036899;28;20182;-57
2021/04/17 06:17:06;;;;;;;16.93;14.90;;;7.50;99.90;;;;;;5036869;28;20640;-54
2021/04/17 06:19:32;;;;;;;19.03;17.23;;;7.50;99.90;;;;;;5036942;28;20252;-55
2021/04/17 06:21:57;;;;;;;17.47;15.67;;;7.50;99.90;;;;;;5037891;28;20654;-54
2021/04/17 06:24:23;;;;;;;18.10;16.20;;;7.50;99.90;;;;;;5037359;28;20739;-56
2021/04/17 06:26:49;;;;;;;19.13;16.67;;;7.70;99.90;;;;;;5037055;28;20202;-56
2021/04/17 06:29:15;;;;;;;17.70;16.00;;;7.60;99.90;;;;;;5036985;28;20193;-57
2021/04/17 06:31:41;;;;;;;19.43;17.40;;;7.60;99.90;;;;;;5036277;28;20258;-57
2021/04/17 06:34:06;;;;;;;19.00;17.20;;;7.70;99.90;;;;;;5036606;28;20468;-55
2021/04/17 06:36:33;;;;;;;17.40;14.73;;;7.80;99.90;;;;;;5036566;28;20266;-56
2021/04/17 06:38:58;;;;;;;17.90;16.20;;;8.00;99.90;;;;;;5036075;28;20175;-57
2021/04/17 06:41:31;;;;;;;18.70;16.80;;;8.00;99.90;;;;;;5036448;28;20906;-57
2021/04/17 06:43:58;;;;;;;18.10;16.17;;;8.00;99.90;;;;;;5036335;28;20204;-56
2021/04/17 06:46:25;;;;;;;19.60;17.30;;;8.20;99.90;;;;;;5035946;28;20394;-56
2021/04/17 06:48:52;;;;;;;17.97;16.13;;;8.10;99.90;;;;;;5036818;28;20903;-56
2021/04/17 06:51:18;;;;;;;18.80;16.90;;;7.80;99.90;;;;;;5036265;28;20406;-57
2021/04/17 06:53:45;;;;;;;18.70;16.80;;;7.50;99.90;;;;;;5018564;28;20633;-57
2021/04/17 06:56:12;;;;;;;16.77;14.97;;;7.80;99.90;;;;;;5035952;28;20414;-57
2021/04/17 06:58:40;;;;;;;19.10;16.47;;;7.80;99.90;;;;;;5036625;28;20433;-54
2021/04/17 07:01:07;;;;;;;20.53;17.20;;;8.00;99.90;;;;;;5036242;28;20434;-54
2021/04/17 07:03:33;;;;;;;20.33;18.33;;;8.20;99.90;;;;;;5035946;28;20458;-57
2021/04/17 07:05:58;;;;;;;19.03;17.00;;;8.00;99.90;;;;;;5036300;28;20406;-55
2021/04/17 07:08:24;;;;;;;17.47;15.60;;;8.20;99.90;;;;;;5035901;28;20919;-57
2021/04/17 07:10:49;;;;;;;18.67;16.17;;;8.30;99.90;;;;;;5035607;28;20206;-56
2021/04/17 07:13:17;;;;;;;17.57;15.87;;;8.30;99.90;;;;;;5035937;28;20190;-58
2021/04/17 07:15:45;;;;;;;17.43;15.67;;;8.30;99.90;;;;;;5035781;28;20616;-57
2021/04/17 07:18:26;;;;;;;22.40;16.73;;;8.40;99.90;;;;;;5035638;28;20492;-57
2021/04/17 07:20:56;;;;;;;19.37;17.37;;;8.30;99.90;;;;;;5035873;28;20402;-55
2021/04/17 07:23:31;;;;;;;15.90;14.37;;;8.10;99.90;;;;;;5035584;28;20446;-57
2021/04/17 07:26:19;;;;;;;20.07;17.43;;;8.10;99.90;;;;;;5035225;28;20492;-57
2021/04/17 07:28:54;;;;;;;19.50;16.93;;;8.00;99.90;;;;;;5035558;28;20378;-57
2021/04/17 07:31:20;;;;;;;17.30;15.60;;;7.90;99.90;;;;;;5017473;28;20416;-56
2021/04/17 07:33:45;;;;;;;17.57;15.83;;;8.10;99.90;;;;;;5035363;28;20418;-57
2021/04/17 07:36:11;;;;;;;20.40;18.17;;;8.00;99.90;;;;;;5035773;28;20880;-54
2021/04/17 07:38:38;;;;;;;17.67;15.40;;;8.40;99.90;;;;;;5035944;28;20175;-53
2021/04/17 07:41:12;;;;;;;14.60;13.20;;;8.20;99.90;;;;;;5035137;28;20186;-53
2021/04/17 07:43:51;;;;;;;16.77;15.10;;;8.40;99.90;;;;;;5035016;28;20486;-53
2021/04/17 07:46:21;;;;;;;17.03;15.27;;;8.50;99.90;;;;;;5035172;28;20442;-54
2021/04/17 07:48:47;;;;;;;20.03;15.90;;;8.50;99.90;;;;;;5035434;28;20482;-54
2021/04/17 07:51:13;;;;;;;18.20;15.20;;;8.50;99.90;;;;;;5017370;28;20986;-54
2021/04/17 07:53:40;;;;;;;18.47;15.50;;;8.50;99.90;;;;;;5035331;28;20430;-55
2021/04/17 07:56:34;;;;;;;18.30;15.20;;;8.50;99.90;;;;;;5034897;28;20541;-53
2021/04/17 07:59:02;;;;;;;18.57;16.77;;;8.50;99.90;;;;;;5034818;28;20395;-53
2021/04/17 08:01:31;;;;;;;18.73;16.93;;;8.40;99.90;;;;;;5037392;28;20414;-53
2021/04/17 08:03:59;;;;;;;18.43;15.60;;;8.80;99.90;;;;;;5034859;28;20966;-55
2021/04/17 08:06:26;;;;;;;21.73;16.50;;;9.00;99.90;;;;;;5033637;28;20445;-54
2021/04/17 08:08:54;;;;;;;17.77;15.57;;;9.00;99.90;;;;;;5035175;28;20406;-54
2021/04/17 08:11:22;;;;;;;17.50;14.93;;;8.90;99.90;;;;;;5034385;28;20413;-54
2021/04/17 08:13:49;;;;;;;15.83;14.20;;;8.90;99.90;;;;;;5034455;28;20429;-56
2021/04/17 08:16:16;;;;;;;17.33;15.70;;;9.00;99.90;;;;;;5034574;28;20436;-53
2021/04/17 08:18:43;;;;;;;17.13;15.30;;;8.80;99.90;;;;;;5034505;28;20416;-55
2021/04/17 08:21:10;;;;;;;15.90;14.27;;;9.00;99.90;;;;;;5034564;28;20425;-54
2021/04/17 08:23:37;;;;;;;15.67;14.13;;;9.20;99.90;;;;;;5034633;28;20452;-54
2021/04/17 08:26:05;;;;;;;15.50;13.80;;;9.30;99.90;;;;;;5034192;28;20537;-56
2021/04/17 08:28:39;;;;;;;16.50;14.43;;;9.20;99.90;;;;;;5034971;28;20404;-56
2021/04/17 08:31:20;;;;;;;14.20;12.77;;;9.10;99.90;;;;;;5034399;28;20410;-57
2021/04/17 08:34:05;;;;;;;14.03;12.53;;;9.10;99.90;;;;;;5031592;28;20434;-54
2021/04/17 08:36:36;;;;;;;15.80;13.53;;;9.30;99.90;;;;;;5034451;28;20494;-53
2021/04/17 08:39:04;;;;;;;14.37;12.83;;;9.40;99.90;;;;;;5034501;28;20414;-52
2021/04/17 08:41:43;;;;;;;14.40;12.90;;;9.70;99.90;;;;;;5033964;28;20410;-54
2021/04/17 08:44:33;;;;;;;13.23;11.63;;;9.80;99.90;;;;;;5034364;28;20456;-52
2021/04/17 08:47:01;;;;;;;14.00;12.50;;;9.80;99.90;;;;;;5034174;28;20379;-53
2021/04/17 08:49:28;;;;;;;14.43;12.53;;;10.20;99.30;;;;;;5034227;28;20404;-52
2021/04/17 08:52:20;;;;;;;14.63;13.13;;;10.50;99.00;;;;;;5016290;28;20492;-55
2021/04/17 08:55:06;;;;;;;12.07;10.43;;;10.80;98.40;;;;;;5034209;28;20423;-53
2021/04/17 08:57:32;;;;;;;11.57;10.37;;;10.30;98.20;;;;;;5026952;28;21062;-56
2021/04/17 09:00:00;;;;;;;11.13;10.00;;;10.50;98.20;;;;;;5034217;28;20444;-54
2021/04/17 09:02:28;;;;;;;11.47;10.27;;;10.30;97.40;;;;;;5033559;28;20431;-53
2021/04/17 09:05:08;;;;;;;11.53;10.43;;;10.40;97.40;;;;;;5034858;28;20464;-53
2021/04/17 09:07:37;;;;;;;10.70;9.70;;;10.80;97.00;;;;;;5034290;28;20409;-53
2021/04/17 09:10:35;;;;;;;11.13;10.03;;;10.70;96.50;;;;;;5033641;28;20413;-55
2021/04/17 09:13:11;;;;;;;10.70;9.60;;;10.60;96.90;;;;;;5033837;28;20462;-54
2021/04/17 09:15:52;;;;;;;10.27;9.20;;;10.50;96.80;;;;;;5034258;28;20719;-57
2021/04/17 09:18:33;;;;;;;10.57;9.57;;;10.50;96.90;;;;;;5033323;28;20929;-54
2021/04/17 09:21:00;;;;;;;10.70;9.60;;;10.80;96.40;;;;;;5034121;28;20406;-55
2021/04/17 09:23:36;;;;;;;11.03;9.40;;;10.90;96.40;;;;;;5033387;28;20452;-54
2021/04/17 09:26:02;;;;;;;11.20;9.13;;;11.20;96.10;;;;;;5032989;28;20456;-54
2021/04/17 09:28:39;;;;;;;10.63;9.07;;;10.80;96.00;;;;;;5033826;28;20488;-53
2021/04/17 09:31:06;;;;;;;12.07;10.97;;;11.10;95.90;;;;;;5033558;28;20889;-54
2021/04/17 09:33:32;;;;;;;13.90;9.80;;;11.30;95.80;;;;;;5033232;28;20426;-52
2021/04/17 09:35:58;;;;;;;11.37;9.93;;;11.30;95.40;;;;;;5033569;28;20783;-54
2021/04/17 09:38:30;;;;;;;10.70;9.70;;;11.40;95.60;;;;;;5033679;28;20543;-52
2021/04/17 09:40:57;;;;;;;13.30;11.20;;;11.40;95.70;;;;;;5033328;28;20159;-56
2021/04/17 09:43:28;;;;;;;10.90;9.90;;;11.40;95.70;;;;;;5033526;28;20977;-55
2021/04/17 09:45:56;;;;;;;9.97;9.07;;;11.20;95.00;;;;;;5033427;28;20474;-53
2021/04/17 09:48:23;;;;;;;12.53;11.27;;;11.20;95.20;;;;;;5033047;28;20401;-56
2021/04/17 09:50:56;;;;;;;11.87;10.83;;;11.50;94.80;;;;;;5033356;28;20395;-56
2021/04/17 09:53:37;;;;;;;11.80;10.60;;;11.70;94.60;;;;;;5033557;28;20848;-56
2021/04/17 09:56:12;;;;;;;12.23;10.97;;;11.80;94.80;;;;;;5033297;28;20382;-53
2021/04/17 09:58:43;;;;;;;11.40;10.20;;;11.60;94.90;;;;;;5035408;28;20791;-56
2021/04/17 10:01:10;;;;;;;11.60;10.40;;;11.60;94.60;;;;;;5033786;28;20894;-55
2021/04/17 10:03:37;;;;;;;10.03;9.10;;;11.70;95.50;;;;;;5032629;28;20468;-54
2021/04/17 10:06:03;;;;;;;10.40;9.07;;;11.50;94.70;;;;;;5033056;28;20496;-55
2021/04/17 10:08:32;;;;;;;11.27;10.17;;;11.40;94.50;;;;;;5033681;28;20402;-54
2021/04/17 10:10:58;;;;;;;9.40;8.50;;;11.70;94.20;;;;;;5033018;28;20505;-53
2021/04/17 10:13:42;;;;;;;9.93;8.03;;;11.60;93.70;;;;;;5033376;28;20937;-54
2021/04/17 10:16:10;;;;;;;10.60;8.73;;;11.40;92.90;;;;;;5033656;28;20389;-52
2021/04/17 10:18:38;;;;;;;11.17;8.13;;;11.60;93.60;;;;;;5033296;28;20439;-51
2021/04/17 10:21:05;;;;;;;9.13;8.23;;;11.40;93.30;;;;;;5034608;28;20949;-54
2021/04/17 10:23:32;;;;;;;8.50;7.60;;;11.50;92.50;;;;;;5034273;28;20449;-54
2021/04/17 10:26:23;;;;;;;7.67;6.83;;;11.90;91.90;;;;;;5034456;28;20403;-55
2021/04/17 10:28:52;;;;;;;12.07;7.67;;;12.20;92.00;;;;;;5032718;28;20412;-57
2021/04/17 10:31:19;;;;;;;8.90;8.00;;;12.00;92.00;;;;;;5033889;28;20801;-56
2021/04/17 10:33:47;;;;;;;11.53;8.10;;;12.00;92.40;;;;;;5033660;28;20797;-54
2021/04/17 10:36:21;;;;;;;8.13;6.80;;;11.90;92.20;;;;;;5034944;28;20448;-56
2021/04/17 10:38:50;;;;;;;8.10;6.83;;;11.80;91.50;;;;;;5036685;28;20420;-56
2021/04/17 10:41:29;;;;;;;7.50;6.70;;;11.50;91.50;;;;;;5036416;28;20758;-55
2021/04/17 10:44:12;;;;;;;8.13;6.70;;;11.50;92.00;;;;;;5037802;28;20445;-52
2021/04/17 10:46:52;;;;;;;7.70;7.00;;;11.50;91.50;;;;;;5036794;28;20409;-53
2021/04/17 10:49:38;;;;;;;8.67;7.87;;;11.60;91.60;;;;;;5036732;28;20466;-53
2021/04/17 10:52:26;;;;;;;8.50;7.70;;;11.40;92.30;;;;;;5036715;28;20442;-53
2021/04/17 10:54:56;;;;;;;7.93;7.13;;;11.50;92.30;;;;;;5036294;28;20418;-52
2021/04/17 10:57:22;;;;;;;7.70;6.90;;;11.90;91.60;;;;;;5036344;28;20422;-53
2021/04/17 11:00:06;;;;;;;7.73;7.03;;;12.20;90.80;;;;;;5035943;28;20438;-53
2021/04/17 11:02:35;;;;;;;6.80;6.20;;;12.20;90.30;;;;;;5035942;28;20438;-53
2021/04/17 11:05:04;;;;;;;7.20;6.50;;;12.20;90.30;;;;;;5036158;28;20453;-55
2021/04/17 11:07:31;;;;;;;8.40;5.73;;;12.30;90.00;;;;;;5036070;28;20540;-54
2021/04/17 11:09:57;;;;;;;8.10;6.93;;;12.10;89.60;;;;;;5031108;28;20407;-53
2021/04/17 11:12:30;;;;;;;6.70;5.73;;;12.50;89.80;;;;;;5026901;28;20832;-52
2021/04/17 11:15:17;;;;;;;8.93;5.90;;;13.20;87.90;;;;;;5036002;28;20394;-53
2021/04/17 11:17:43;;;;;;;7.10;6.33;;;13.70;85.40;;;;;;5035828;28;20405;-56
2021/04/17 11:20:20;;;;;;;6.03;5.30;;;13.50;84.50;;;;;;5036168;28;20468;-55
2021/04/17 11:22:46;;;;;;;9.20;5.10;;;13.30;84.10;;;;;;5036035;28;20437;-53
2021/04/17 11:25:13;;;;;;;6.77;5.70;;;13.20;84.50;;;;;;5035672;28;20540;-52
2021/04/17 11:27:39;;;;;;;5.97;5.37;;;13.30;85.70;;;;;;5017937;28;20409;-56
2021/04/17 11:30:07;;;;;;;6.23;5.07;;;13.40;85.10;;;;;;5035554;28;20407;-50
2021/04/17 11:32:34;;;;;;;6.50;5.80;;;13.20;83.80;;;;;;5035319;28;20426;-52
2021/04/17 11:35:07;;;;;;;6.30;5.73;;;12.70;84.40;;;;;;5035593;28;20489;-53
2021/04/17 11:37:33;;;;;;;6.33;5.73;;;12.70;85.70;;;;;;5035497;28;20891;-53
2021/04/17 11:39:58;;;;;;;6.00;5.27;;;13.80;83.60;;;;;;5035403;28;20414;-55
2021/04/17 11:42:25;;;;;;;6.60;5.07;;;13.60;82.10;;;;;;5035362;28;20211;-53
2021/04/17 11:44:52;;;;;;;6.30;4.87;;;14.10;82.80;;;;;;5035236;28;20203;-52
2021/04/17 11:47:17;;;;;;;6.70;5.50;;;15.70;77.30;;;;;;5034137;28;20400;-53
2021/04/17 11:49:43;;;;;;;5.20;4.70;;;17.00;72.10;;;;;;5034964;28;20409;-56
2021/04/17 11:52:09;;;;;;;5.43;4.87;;;17.70;69.10;;;;;;5035104;28;20260;-55
2021/04/17 11:54:34;;;;;;;6.37;4.90;;;17.00;66.50;;;;;;5034872;28;20202;-52
2021/04/17 11:57:00;;;;;;;4.73;4.23;;;16.60;66.90;;;;;;5034609;28;20456;-56
2021/04/17 11:59:27;;;;;;;5.23;4.73;;;16.20;67.80;;;;;;5037392;28;20181;-53
2021/04/17 12:01:53;;;;;;;6.27;4.87;;;16.30;67.60;;;;;;5034595;28;20202;-51
2021/04/17 12:04:18;;;;;;;5.30;4.80;;;16.90;68.50;;;;;;5035036;28;20964;-53
2021/04/17 12:06:49;;;;;;;6.17;5.57;;;17.80;65.90;;;;;;5034766;28;20618;-53
2021/04/17 12:09:15;;;;;;;5.47;5.03;;;18.20;62.10;;;;;;5034497;28;20182;-55
2021/04/17 12:11:41;;;;;;;5.73;5.10;;;17.20;61.50;;;;;;5034610;28;20410;-55
2021/04/17 12:14:07;;;;;;;7.60;5.70;;;16.60;63.60;;;;;;5034810;28;20224;-54
2021/04/17 12:16:33;;;;;;;5.23;4.73;;;17.10;62.00;;;;;;5034818;28;20169;-54
2021/04/17 12:18:59;;;;;;;5.37;4.50;;;17.10;63.00;;;;;;5034659;28;20411;-52
2021/04/17 12:21:24;;;;;;;5.23;4.73;;;16.30;61.90;;;;;;5034672;28;20167;-55
2021/04/17 12:23:50;;;;;;;5.83;4.70;;;16.60;62.60;;;;;;5034386;28;20193;-53
2021/04/17 12:26:16;;;;;;;5.10;4.60;;;16.70;63.10;;;;;;5034481;28;20174;-52
2021/04/17 12:28:41;;;;;;;4.83;4.53;;;18.30;62.70;;;;;;5034623;28;20410;-53
2021/04/17 12:31:07;;;;;;;5.03;4.50;;;18.50;58.20;;;;;;5034209;28;20197;-56
2021/04/17 12:33:32;;;;;;;6.10;5.50;;;18.00;59.30;;;;;;5034035;28;20198;-55
2021/04/17 12:35:59;;;;;;;4.30;3.90;;;17.90;59.40;;;;;;5034731;28;20708;-53
2021/04/17 12:38:25;;;;;;;4.40;4.00;;;18.00;59.00;;;;;;5034660;28;20173;-51
2021/04/17 12:40:54;;;;;;;5.20;3.87;;;16.90;59.70;;;;;;5034225;28;20499;-53
2021/04/17 12:43:20;;;;;;;5.33;4.30;;;15.90;62.40;;;;;;5034407;28;20213;-54
2021/04/17 12:45:46;;;;;;;4.10;3.70;;;15.80;64.30;;;;;;5033884;28;20401;-55